HKE130 VHHH-RCKH
Flight info
| Callsign | HKE130 |
|---|---|
| Flight time | 1h 1m |
| Altitude | 33000 |
| Route | DALOL V631 ENVAR M750 DADON G581 PORCH PORCH1A |
| Aircraft | A320/M-SDE3FGHIRWY/LB1 |
Departure
| Time | 2026-04-24 20:51 |
|---|---|
| Airport | Hong Kong International Airport (VHHH) |
Arrival
| Time | 2026-04-24 21:52 |
|---|---|
| Airport | Kaohsiung International Airport (RCKH) |
| Time | Latitude | Longitude | Altitude | Speed | Heading |
|---|---|---|---|---|---|
| 2026-04-24 20:24 | 22.30946 | 113.91886 | 32 ft | 0 kts | 249° |
| 2026-04-24 20:35 | 22.30947 | 113.91888 | 32 ft | 4 kts | 253° |
| 2026-04-24 20:35 | 22.30953 | 113.91916 | 31 ft | 4 kts | 262° |
| 2026-04-24 20:36 | 22.30955 | 113.91932 | 32 ft | 0 kts | 264° |
| 2026-04-24 20:38 | 22.30956 | 113.91929 | 18 ft | 1 kts | 289° |
| 2026-04-24 20:38 | 22.30968 | 113.91931 | 10 ft | 3 kts | 13° |
| 2026-04-24 20:39 | 22.31001 | 113.91945 | 32 ft | 8 kts | 20° |
| 2026-04-24 20:39 | 22.31073 | 113.91934 | 32 ft | 14 kts | 341° |
| 2026-04-24 20:39 | 22.31172 | 113.91898 | 32 ft | 16 kts | 341° |
| 2026-04-24 20:39 | 22.31286 | 113.91856 | 32 ft | 19 kts | 341° |
| 2026-04-24 20:40 | 22.31415 | 113.91808 | 32 ft | 21 kts | 340° |
| 2026-04-24 20:40 | 22.31525 | 113.91738 | 32 ft | 16 kts | 282° |
| 2026-04-24 20:40 | 22.31503 | 113.91646 | 32 ft | 12 kts | 252° |
| 2026-04-24 20:40 | 22.31474 | 113.91550 | 32 ft | 15 kts | 252° |
| 2026-04-24 20:41 | 22.31436 | 113.91437 | 31 ft | 18 kts | 250° |
| 2026-04-24 20:41 | 22.31391 | 113.91294 | 32 ft | 23 kts | 252° |
| 2026-04-24 20:41 | 22.31335 | 113.91115 | 31 ft | 27 kts | 250° |
| 2026-04-24 20:41 | 22.31268 | 113.90914 | 32 ft | 29 kts | 251° |
| 2026-04-24 20:42 | 22.31201 | 113.90699 | 32 ft | 31 kts | 252° |
| 2026-04-24 20:42 | 22.31133 | 113.90472 | 32 ft | 33 kts | 252° |
| 2026-04-24 20:42 | 22.31052 | 113.90248 | 32 ft | 29 kts | 250° |
| 2026-04-24 20:42 | 22.30986 | 113.90044 | 32 ft | 26 kts | 251° |
| 2026-04-24 20:43 | 22.30980 | 113.89911 | 31 ft | 10 kts | 324° |
| 2026-04-24 20:43 | 22.31054 | 113.89870 | 30 ft | 15 kts | 336° |
| 2026-04-24 20:43 | 22.31166 | 113.89826 | 30 ft | 20 kts | 342° |
| 2026-04-24 20:43 | 22.31308 | 113.89779 | 32 ft | 23 kts | 345° |
| 2026-04-24 20:44 | 22.31394 | 113.89883 | 32 ft | 21 kts | 71° |
| 2026-04-24 20:44 | 22.31445 | 113.90041 | 32 ft | 23 kts | 70° |
| 2026-04-24 20:44 | 22.31502 | 113.90214 | 32 ft | 26 kts | 70° |
| 2026-04-24 20:44 | 22.31560 | 113.90404 | 32 ft | 28 kts | 72° |
| 2026-04-24 20:45 | 22.31627 | 113.90603 | 31 ft | 27 kts | 60° |
| 2026-04-24 20:45 | 22.31711 | 113.90614 | 32 ft | 14 kts | 341° |
| 2026-04-24 20:45 | 22.31844 | 113.90565 | 32 ft | 24 kts | 341° |
| 2026-04-24 20:45 | 22.32006 | 113.90504 | 32 ft | 26 kts | 341° |
| 2026-04-24 20:46 | 22.32180 | 113.90440 | 32 ft | 27 kts | 341° |
| 2026-04-24 20:46 | 22.32363 | 113.90373 | 32 ft | 28 kts | 340° |
| 2026-04-24 20:46 | 22.32527 | 113.90300 | 32 ft | 19 kts | 308° |
| 2026-04-24 20:46 | 22.32507 | 113.90166 | 32 ft | 19 kts | 250° |
| 2026-04-24 20:47 | 22.32459 | 113.90015 | 32 ft | 24 kts | 251° |
| 2026-04-24 20:47 | 22.32403 | 113.89841 | 32 ft | 26 kts | 251° |
| 2026-04-24 20:47 | 22.32343 | 113.89652 | 31 ft | 28 kts | 250° |
| 2026-04-24 20:47 | 22.32277 | 113.89450 | 30 ft | 29 kts | 251° |
| 2026-04-24 20:48 | 22.32208 | 113.89237 | 32 ft | 31 kts | 250° |
| 2026-04-24 20:48 | 22.32135 | 113.89012 | 32 ft | 32 kts | 251° |
| 2026-04-24 20:48 | 22.32061 | 113.88778 | 30 ft | 34 kts | 251° |
| 2026-04-24 20:48 | 22.31986 | 113.88533 | 31 ft | 35 kts | 252° |
| 2026-04-24 20:49 | 22.31906 | 113.88292 | 32 ft | 27 kts | 250° |
| 2026-04-24 20:49 | 22.31919 | 113.88155 | 32 ft | 18 kts | 330° |
| 2026-04-24 20:49 | 22.32043 | 113.88107 | 31 ft | 21 kts | 342° |
| 2026-04-24 20:49 | 22.32129 | 113.88134 | 31 ft | 13 kts | 72° |
| 2026-04-24 20:50 | 22.32182 | 113.88307 | 31 ft | 50 kts | 71° |
| 2026-04-24 20:50 | 22.32373 | 113.88897 | 31 ft | 114 kts | 71° |
| 2026-04-24 20:50 | 22.32697 | 113.89870 | 34 ft | 160 kts | 68° |
| 2026-04-24 20:50 | 22.33098 | 113.91046 | 524 ft | 166 kts | 71° |
| 2026-04-24 20:51 | 22.33462 | 113.92252 | 1125 ft | 172 kts | 71° |
| 2026-04-24 20:51 | 22.33845 | 113.93488 | 1781 ft | 174 kts | 70° |
| 2026-04-24 20:51 | 22.34241 | 113.94712 | 2443 ft | 171 kts | 71° |
| 2026-04-24 20:51 | 22.34613 | 113.95938 | 2977 ft | 173 kts | 79° |
| 2026-04-24 20:52 | 22.34665 | 113.97256 | 3377 ft | 185 kts | 95° |
| 2026-04-24 20:52 | 22.34571 | 113.98724 | 3619 ft | 207 kts | 95° |
| 2026-04-24 20:52 | 22.34466 | 114.00359 | 3961 ft | 226 kts | 95° |
| 2026-04-24 20:52 | 22.34358 | 114.02061 | 4726 ft | 229 kts | 94° |
| 2026-04-24 20:53 | 22.34193 | 114.03793 | 5341 ft | 240 kts | 104° |
| 2026-04-24 20:53 | 22.33572 | 114.05502 | 5977 ft | 249 kts | 122° |
| 2026-04-24 20:53 | 22.32489 | 114.06967 | 6725 ft | 252 kts | 140° |
| 2026-04-24 20:53 | 22.31048 | 114.08034 | 7492 ft | 252 kts | 158° |
| 2026-04-24 20:54 | 22.29377 | 114.08600 | 8248 ft | 253 kts | 175° |
| 2026-04-24 20:54 | 22.27611 | 114.08680 | 8996 ft | 256 kts | 183° |
| 2026-04-24 20:54 | 22.25812 | 114.08690 | 9748 ft | 261 kts | 183° |
| 2026-04-24 20:54 | 22.23947 | 114.08694 | 10191 ft | 279 kts | 184° |
| 2026-04-24 20:55 | 22.21924 | 114.08672 | 10430 ft | 302 kts | 184° |
| 2026-04-24 20:55 | 22.19738 | 114.08654 | 10643 ft | 326 kts | 180° |
| 2026-04-24 20:55 | 22.17458 | 114.09200 | 11012 ft | 345 kts | 158° |
| 2026-04-24 20:55 | 22.15454 | 114.10663 | 11635 ft | 354 kts | 136° |
| 2026-04-24 20:56 | 22.14037 | 114.12856 | 12275 ft | 360 kts | 118° |
| 2026-04-24 20:56 | 22.12888 | 114.15270 | 12938 ft | 364 kts | 117° |
| 2026-04-24 20:56 | 22.11736 | 114.17713 | 13584 ft | 367 kts | 117° |
| 2026-04-24 20:56 | 22.10574 | 114.20179 | 14150 ft | 371 kts | 117° |
| 2026-04-24 20:57 | 22.09398 | 114.22668 | 14689 ft | 375 kts | 117° |
| 2026-04-24 20:57 | 22.08063 | 114.25096 | 15191 ft | 379 kts | 127° |
| 2026-04-24 20:57 | 22.06305 | 114.27216 | 15688 ft | 381 kts | 139° |
| 2026-04-24 20:57 | 22.04205 | 114.28977 | 16193 ft | 385 kts | 146° |
| 2026-04-24 20:58 | 22.02026 | 114.30679 | 16687 ft | 389 kts | 146° |
| 2026-04-24 20:58 | 21.99826 | 114.32406 | 17184 ft | 394 kts | 145° |
| 2026-04-24 20:58 | 21.97605 | 114.34158 | 17681 ft | 398 kts | 145° |
| 2026-04-24 20:58 | 21.95360 | 114.35932 | 18172 ft | 402 kts | 145° |
| 2026-04-24 20:59 | 21.93090 | 114.37724 | 18614 ft | 406 kts | 145° |
| 2026-04-24 20:59 | 21.90832 | 114.39504 | 19065 ft | 409 kts | 146° |
| 2026-04-24 20:59 | 21.88511 | 114.41357 | 19554 ft | 412 kts | 143° |
| 2026-04-24 20:59 | 21.86473 | 114.43484 | 20015 ft | 417 kts | 131° |
| 2026-04-24 21:00 | 21.84806 | 114.46046 | 20472 ft | 421 kts | 120° |
| 2026-04-24 21:00 | 21.83606 | 114.48931 | 20931 ft | 425 kts | 108° |
| 2026-04-24 21:00 | 21.82796 | 114.51999 | 21371 ft | 428 kts | 105° |
| 2026-04-24 21:00 | 21.82002 | 114.55097 | 21801 ft | 431 kts | 106° |
| 2026-04-24 21:01 | 21.81201 | 114.58211 | 22242 ft | 434 kts | 106° |
| 2026-04-24 21:01 | 21.80391 | 114.61351 | 22681 ft | 437 kts | 106° |
| 2026-04-24 21:01 | 21.79572 | 114.64506 | 23100 ft | 440 kts | 107° |
| 2026-04-24 21:01 | 21.78743 | 114.67685 | 23523 ft | 443 kts | 107° |
| 2026-04-24 21:02 | 21.77909 | 114.70886 | 23875 ft | 446 kts | 107° |
| 2026-04-24 21:02 | 21.77072 | 114.74108 | 24212 ft | 449 kts | 107° |
| 2026-04-24 21:02 | 21.76231 | 114.77353 | 24555 ft | 452 kts | 107° |
| 2026-04-24 21:02 | 21.75383 | 114.80621 | 24891 ft | 455 kts | 108° |
| 2026-04-24 21:03 | 21.74636 | 114.83940 | 25215 ft | 459 kts | 101° |
| 2026-04-24 21:03 | 21.74349 | 114.87376 | 25544 ft | 464 kts | 91° |
| 2026-04-24 21:03 | 21.74360 | 114.90858 | 25873 ft | 467 kts | 90° |
| 2026-04-24 21:03 | 21.74368 | 114.94358 | 26203 ft | 470 kts | 90° |
| 2026-04-24 21:04 | 21.74367 | 114.97885 | 26529 ft | 473 kts | 91° |
| 2026-04-24 21:04 | 21.74363 | 115.01430 | 26882 ft | 476 kts | 91° |
| 2026-04-24 21:04 | 21.74359 | 115.05002 | 27169 ft | 480 kts | 91° |
| 2026-04-24 21:04 | 21.74356 | 115.08600 | 27474 ft | 483 kts | 91° |
| 2026-04-24 21:05 | 21.74352 | 115.12220 | 27785 ft | 486 kts | 91° |
| 2026-04-24 21:05 | 21.74346 | 115.15862 | 28095 ft | 488 kts | 91° |
| 2026-04-24 21:05 | 21.74340 | 115.19527 | 28412 ft | 491 kts | 91° |
| 2026-04-24 21:05 | 21.74332 | 115.23160 | 28730 ft | 494 kts | 91° |
| 2026-04-24 21:06 | 21.74322 | 115.26868 | 29055 ft | 497 kts | 91° |
| 2026-04-24 21:06 | 21.74313 | 115.30600 | 29383 ft | 500 kts | 91° |
| 2026-04-24 21:06 | 21.74303 | 115.34352 | 29699 ft | 504 kts | 91° |
| 2026-04-24 21:06 | 21.74296 | 115.38130 | 29996 ft | 507 kts | 91° |
| 2026-04-24 21:07 | 21.74288 | 115.41936 | 30262 ft | 510 kts | 91° |
| 2026-04-24 21:07 | 21.74279 | 115.45764 | 30527 ft | 513 kts | 91° |
| 2026-04-24 21:07 | 21.74267 | 115.49609 | 30792 ft | 516 kts | 92° |
| 2026-04-24 21:07 | 21.74252 | 115.53476 | 31056 ft | 518 kts | 92° |
| 2026-04-24 21:08 | 21.74237 | 115.57355 | 31389 ft | 519 kts | 92° |
| 2026-04-24 21:08 | 21.74227 | 115.61234 | 31772 ft | 518 kts | 92° |
| 2026-04-24 21:08 | 21.74217 | 115.65108 | 32136 ft | 518 kts | 92° |
| 2026-04-24 21:08 | 21.74209 | 115.68988 | 32507 ft | 518 kts | 92° |
| 2026-04-24 21:09 | 21.74197 | 115.72863 | 32867 ft | 519 kts | 92° |
| 2026-04-24 21:09 | 21.74181 | 115.76743 | 32987 ft | 517 kts | 92° |
| 2026-04-24 21:09 | 21.74142 | 115.84369 | 33006 ft | 506 kts | 92° |
| 2026-04-24 21:10 | 21.74094 | 115.91928 | 33009 ft | 505 kts | 92° |
| 2026-04-24 21:10 | 21.74051 | 115.99470 | 33010 ft | 504 kts | 92° |
| 2026-04-24 21:11 | 21.74009 | 116.07009 | 33008 ft | 504 kts | 92° |
| 2026-04-24 21:11 | 21.73957 | 116.14543 | 33004 ft | 504 kts | 92° |
| 2026-04-24 21:12 | 21.73912 | 116.20806 | 33003 ft | 504 kts | 93° |
| 2026-04-24 21:12 | 21.73860 | 116.28340 | 32995 ft | 504 kts | 93° |
| 2026-04-24 21:13 | 21.73803 | 116.35868 | 33008 ft | 503 kts | 93° |
| 2026-04-24 21:13 | 21.73739 | 116.43387 | 33009 ft | 503 kts | 93° |
| 2026-04-24 21:14 | 21.73676 | 116.50904 | 33015 ft | 502 kts | 93° |
| 2026-04-24 21:14 | 21.73607 | 116.58416 | 33009 ft | 502 kts | 93° |
| 2026-04-24 21:15 | 21.73530 | 116.65921 | 33019 ft | 501 kts | 93° |
| 2026-04-24 21:15 | 21.73455 | 116.73410 | 33022 ft | 501 kts | 93° |
| 2026-04-24 21:16 | 21.74354 | 116.80843 | 33044 ft | 504 kts | 73° |
| 2026-04-24 21:16 | 21.76827 | 116.87895 | 32999 ft | 505 kts | 68° |
| 2026-04-24 21:17 | 21.79389 | 116.94930 | 33005 ft | 505 kts | 69° |
| 2026-04-24 21:17 | 21.81905 | 117.01937 | 33009 ft | 505 kts | 69° |
| 2026-04-24 21:18 | 21.84437 | 117.08991 | 33012 ft | 505 kts | 69° |
| 2026-04-24 21:18 | 21.86977 | 117.16037 | 33013 ft | 505 kts | 69° |
| 2026-04-24 21:19 | 21.89518 | 117.23090 | 33009 ft | 505 kts | 69° |
| 2026-04-24 21:19 | 21.92055 | 117.30135 | 33012 ft | 505 kts | 69° |
| 2026-04-24 21:20 | 21.95858 | 117.40712 | 33025 ft | 505 kts | 69° |
| 2026-04-24 21:21 | 21.98382 | 117.47776 | 33002 ft | 505 kts | 69° |
| 2026-04-24 21:21 | 22.01685 | 117.54438 | 33007 ft | 505 kts | 57° |
| 2026-04-24 21:22 | 22.05361 | 117.60884 | 33013 ft | 505 kts | 57° |
| 2026-04-24 21:22 | 22.09035 | 117.67340 | 33016 ft | 505 kts | 57° |
| 2026-04-24 21:23 | 22.12698 | 117.73812 | 33017 ft | 505 kts | 57° |
| 2026-04-24 21:23 | 22.16335 | 117.80241 | 33040 ft | 506 kts | 57° |
| 2026-04-24 21:24 | 22.19995 | 117.86722 | 33026 ft | 506 kts | 57° |
| 2026-04-24 21:24 | 22.23658 | 117.93210 | 33022 ft | 506 kts | 58° |
| 2026-04-24 21:24 | 22.25233 | 117.96606 | 33017 ft | 507 kts | 69° |
| 2026-04-24 21:25 | 22.26294 | 118.00224 | 33016 ft | 505 kts | 79° |
| 2026-04-24 21:25 | 22.26806 | 118.07704 | 33007 ft | 497 kts | 99° |
| 2026-04-24 21:26 | 22.26008 | 118.15094 | 33015 ft | 496 kts | 101° |
| 2026-04-24 21:26 | 22.25162 | 118.22482 | 33012 ft | 496 kts | 101° |
| 2026-04-24 21:27 | 22.24302 | 118.29868 | 33011 ft | 496 kts | 101° |
| 2026-04-24 21:27 | 22.23441 | 118.37252 | 33015 ft | 496 kts | 102° |
| 2026-04-24 21:28 | 22.22580 | 118.44634 | 33024 ft | 495 kts | 102° |
| 2026-04-24 21:28 | 22.21714 | 118.52011 | 33006 ft | 497 kts | 102° |
| 2026-04-24 21:28 | 22.21274 | 118.55735 | 32253 ft | 504 kts | 102° |
| 2026-04-24 21:29 | 22.20834 | 118.59478 | 31768 ft | 500 kts | 101° |
| 2026-04-24 21:29 | 22.20400 | 118.63185 | 31293 ft | 496 kts | 101° |
| 2026-04-24 21:29 | 22.19971 | 118.66868 | 30802 ft | 492 kts | 101° |
| 2026-04-24 21:29 | 22.19544 | 118.70518 | 30349 ft | 488 kts | 101° |
| 2026-04-24 21:30 | 22.19118 | 118.74138 | 29861 ft | 485 kts | 101° |
| 2026-04-24 21:30 | 22.18696 | 118.77726 | 29409 ft | 479 kts | 101° |
| 2026-04-24 21:30 | 22.18276 | 118.81269 | 28966 ft | 474 kts | 101° |
| 2026-04-24 21:30 | 22.17857 | 118.84774 | 28545 ft | 468 kts | 101° |
| 2026-04-24 21:31 | 22.17446 | 118.88239 | 28126 ft | 463 kts | 101° |
| 2026-04-24 21:31 | 22.17041 | 118.91664 | 27710 ft | 458 kts | 101° |
| 2026-04-24 21:31 | 22.16634 | 118.95063 | 27299 ft | 454 kts | 101° |
| 2026-04-24 21:31 | 22.16228 | 118.98423 | 26903 ft | 450 kts | 101° |
| 2026-04-24 21:32 | 22.15827 | 119.01714 | 26481 ft | 447 kts | 101° |
| 2026-04-24 21:32 | 22.15420 | 119.05027 | 26070 ft | 444 kts | 101° |
| 2026-04-24 21:32 | 22.15017 | 119.08323 | 25648 ft | 442 kts | 101° |
| 2026-04-24 21:32 | 22.14617 | 119.11602 | 25221 ft | 440 kts | 101° |
| 2026-04-24 21:33 | 22.14222 | 119.14880 | 24793 ft | 439 kts | 101° |
| 2026-04-24 21:33 | 22.13828 | 119.18138 | 24349 ft | 437 kts | 101° |
| 2026-04-24 21:33 | 22.13437 | 119.21381 | 23909 ft | 436 kts | 101° |
| 2026-04-24 21:33 | 22.13044 | 119.24620 | 23434 ft | 435 kts | 101° |
| 2026-04-24 21:34 | 22.12651 | 119.27842 | 22960 ft | 432 kts | 100° |
| 2026-04-24 21:34 | 22.12262 | 119.31021 | 22565 ft | 426 kts | 100° |
| 2026-04-24 21:34 | 22.11870 | 119.34202 | 21653 ft | 426 kts | 99° |
| 2026-04-24 21:34 | 22.11486 | 119.37336 | 20917 ft | 418 kts | 99° |
| 2026-04-24 21:35 | 22.11111 | 119.40416 | 20280 ft | 409 kts | 99° |
| 2026-04-24 21:35 | 22.10748 | 119.43416 | 19812 ft | 401 kts | 99° |
| 2026-04-24 21:35 | 22.10382 | 119.46397 | 19325 ft | 401 kts | 99° |
| 2026-04-24 21:35 | 22.10010 | 119.49381 | 18843 ft | 401 kts | 99° |
| 2026-04-24 21:36 | 22.09638 | 119.52362 | 18362 ft | 401 kts | 98° |
| 2026-04-24 21:36 | 22.09265 | 119.55335 | 17919 ft | 398 kts | 99° |
| 2026-04-24 21:36 | 22.08898 | 119.58284 | 17479 ft | 394 kts | 99° |
| 2026-04-24 21:36 | 22.08536 | 119.61209 | 16950 ft | 394 kts | 99° |
| 2026-04-24 21:37 | 22.08181 | 119.64105 | 16621 ft | 387 kts | 99° |
| 2026-04-24 21:37 | 22.07830 | 119.66964 | 15985 ft | 381 kts | 99° |
| 2026-04-24 21:37 | 22.07485 | 119.69752 | 15535 ft | 368 kts | 99° |
| 2026-04-24 21:37 | 22.07148 | 119.72452 | 15128 ft | 362 kts | 100° |
| 2026-04-24 21:38 | 22.06813 | 119.75111 | 14710 ft | 363 kts | 100° |
| 2026-04-24 21:38 | 22.06474 | 119.77804 | 14297 ft | 363 kts | 100° |
| 2026-04-24 21:38 | 22.06137 | 119.80500 | 13875 ft | 363 kts | 100° |
| 2026-04-24 21:38 | 22.05799 | 119.83195 | 13409 ft | 362 kts | 100° |
| 2026-04-24 21:39 | 22.05460 | 119.85877 | 12991 ft | 360 kts | 100° |
| 2026-04-24 21:39 | 22.05122 | 119.88539 | 12569 ft | 358 kts | 100° |
| 2026-04-24 21:39 | 22.04788 | 119.91163 | 12394 ft | 345 kts | 100° |
| 2026-04-24 21:39 | 22.04619 | 119.93680 | 12050 ft | 333 kts | 85° |
| 2026-04-24 21:40 | 22.05274 | 119.96047 | 11739 ft | 330 kts | 60° |
| 2026-04-24 21:40 | 22.06714 | 119.97972 | 11062 ft | 336 kts | 34° |
| 2026-04-24 21:40 | 22.08761 | 119.99050 | 10593 ft | 320 kts | 9° |
| 2026-04-24 21:40 | 22.10904 | 119.99496 | 10225 ft | 310 kts | 6° |
| 2026-04-24 21:41 | 22.13015 | 119.99922 | 9845 ft | 308 kts | 7° |
| 2026-04-24 21:41 | 22.15116 | 120.00350 | 9453 ft | 308 kts | 7° |
| 2026-04-24 21:41 | 22.17217 | 120.00780 | 9075 ft | 307 kts | 7° |
| 2026-04-24 21:41 | 22.19315 | 120.01210 | 8696 ft | 307 kts | 8° |
| 2026-04-24 21:42 | 22.21410 | 120.01640 | 8316 ft | 305 kts | 8° |
| 2026-04-24 21:42 | 22.23462 | 120.02064 | 7946 ft | 296 kts | 8° |
| 2026-04-24 21:42 | 22.25467 | 120.02475 | 7590 ft | 291 kts | 8° |
| 2026-04-24 21:42 | 22.27456 | 120.02880 | 7255 ft | 290 kts | 8° |
| 2026-04-24 21:43 | 22.29405 | 120.03278 | 7164 ft | 281 kts | 8° |
| 2026-04-24 21:43 | 22.31311 | 120.03669 | 7047 ft | 278 kts | 8° |
| 2026-04-24 21:43 | 22.33206 | 120.04058 | 6922 ft | 276 kts | 8° |
| 2026-04-24 21:43 | 22.35092 | 120.04443 | 6796 ft | 275 kts | 8° |
| 2026-04-24 21:44 | 22.36955 | 120.04825 | 6672 ft | 269 kts | 8° |
| 2026-04-24 21:44 | 22.38772 | 120.05200 | 6552 ft | 264 kts | 9° |
| 2026-04-24 21:44 | 22.40551 | 120.05753 | 6202 ft | 268 kts | 17° |
| 2026-04-24 21:44 | 22.42322 | 120.06227 | 5980 ft | 263 kts | 9° |
| 2026-04-24 21:45 | 22.44105 | 120.06578 | 5852 ft | 257 kts | 8° |
| 2026-04-24 21:45 | 22.45879 | 120.06908 | 5621 ft | 253 kts | 8° |
| 2026-04-24 21:45 | 22.47580 | 120.07223 | 5539 ft | 242 kts | 7° |
| 2026-04-24 21:45 | 22.49204 | 120.07526 | 5492 ft | 232 kts | 9° |
| 2026-04-24 21:46 | 22.50763 | 120.07816 | 5443 ft | 230 kts | 8° |
| 2026-04-24 21:46 | 22.52341 | 120.08110 | 5391 ft | 231 kts | 8° |
| 2026-04-24 21:46 | 22.53915 | 120.08402 | 5207 ft | 228 kts | 9° |
| 2026-04-24 21:46 | 22.55443 | 120.08773 | 4912 ft | 222 kts | 21° |
| 2026-04-24 21:47 | 22.56779 | 120.09601 | 4407 ft | 225 kts | 40° |
| 2026-04-24 21:47 | 22.57505 | 120.10437 | 4087 ft | 226 kts | 54° |
| 2026-04-24 21:47 | 22.58288 | 120.12443 | 3711 ft | 214 kts | 80° |
| 2026-04-24 21:47 | 22.58336 | 120.14040 | 3448 ft | 205 kts | 91° |
| 2026-04-24 21:48 | 22.58292 | 120.15543 | 3217 ft | 200 kts | 91° |
| 2026-04-24 21:48 | 22.58248 | 120.17025 | 2946 ft | 195 kts | 90° |
| 2026-04-24 21:48 | 22.58205 | 120.18476 | 2690 ft | 190 kts | 91° |
| 2026-04-24 21:48 | 22.58163 | 120.19884 | 2443 ft | 185 kts | 91° |
| 2026-04-24 21:49 | 22.58123 | 120.21253 | 2218 ft | 178 kts | 90° |
| 2026-04-24 21:49 | 22.58084 | 120.22548 | 1986 ft | 169 kts | 91° |
| 2026-04-24 21:49 | 22.58047 | 120.23795 | 1793 ft | 161 kts | 91° |
| 2026-04-24 21:49 | 22.58012 | 120.24960 | 1571 ft | 150 kts | 90° |
| 2026-04-24 21:50 | 22.57978 | 120.26070 | 1376 ft | 146 kts | 91° |
| 2026-04-24 21:50 | 22.57946 | 120.27144 | 1190 ft | 145 kts | 90° |
| 2026-04-24 21:50 | 22.57913 | 120.28251 | 998 ft | 145 kts | 89° |
| 2026-04-24 21:50 | 22.57879 | 120.29343 | 833 ft | 145 kts | 89° |
| 2026-04-24 21:51 | 22.57838 | 120.30435 | 660 ft | 145 kts | 88° |
| 2026-04-24 21:51 | 22.57810 | 120.31522 | 458 ft | 145 kts | 90° |
| 2026-04-24 21:51 | 22.57782 | 120.32609 | 277 ft | 144 kts | 90° |
| 2026-04-24 21:51 | 22.57752 | 120.33693 | 96 ft | 143 kts | 91° |
| 2026-04-24 21:52 | 22.57720 | 120.34722 | 39 ft | 117 kts | 91° |
| 2026-04-24 21:52 | 22.57698 | 120.35277 | 38 ft | 31 kts | 93° |
| 2026-04-24 21:52 | 22.57694 | 120.35489 | 37 ft | 29 kts | 91° |
| 2026-04-24 21:52 | 22.57686 | 120.35708 | 38 ft | 29 kts | 92° |
| 2026-04-24 21:53 | 22.57648 | 120.35899 | 39 ft | 23 kts | 151° |
| 2026-04-24 21:53 | 22.57526 | 120.35891 | 38 ft | 12 kts | 227° |
| 2026-04-24 21:53 | 22.57513 | 120.35795 | 38 ft | 14 kts | 275° |
| 2026-04-24 21:53 | 22.57518 | 120.35678 | 35 ft | 17 kts | 271° |
| 2026-04-24 21:54 | 22.57524 | 120.35541 | 38 ft | 20 kts | 272° |
| 2026-04-24 21:54 | 22.57530 | 120.35383 | 38 ft | 23 kts | 272° |
| 2026-04-24 21:54 | 22.57533 | 120.35203 | 38 ft | 25 kts | 272° |
| 2026-04-24 21:54 | 22.57539 | 120.35004 | 38 ft | 28 kts | 272° |
| 2026-04-24 21:55 | 22.57546 | 120.34788 | 38 ft | 30 kts | 271° |
| 2026-04-24 21:55 | 22.57554 | 120.34554 | 39 ft | 32 kts | 272° |
| 2026-04-24 21:55 | 22.57562 | 120.34304 | 39 ft | 34 kts | 271° |
| 2026-04-24 21:55 | 22.57543 | 120.34124 | 39 ft | 13 kts | 204° |
| 2026-04-24 21:56 | 22.57445 | 120.34118 | 38 ft | 15 kts | 194° |
| 2026-04-24 21:56 | 22.57360 | 120.34054 | 38 ft | 16 kts | 191° |
| 2026-04-24 21:56 | 22.57243 | 120.34049 | 38 ft | 16 kts | 181° |
| 2026-04-24 21:56 | 22.57211 | 120.34076 | 38 ft | 7 kts | 79° |
| 2026-04-24 21:57 | 22.57212 | 120.34116 | 38 ft | 2 kts | 82° |
| 2026-04-24 21:57 | 22.57214 | 120.34123 | 38 ft | 1 kts | 85° |
| 2026-04-24 21:57 | 22.57213 | 120.34128 | 38 ft | 0 kts | 92° |